createdAt,value
2023-04-29T00:02:58.608Z,97869.06
2023-04-29T00:06:02.134Z,97865.47
2023-04-29T00:09:04.874Z,97871.25
2023-04-29T00:12:07.703Z,97864.66
2023-04-29T00:15:10.921Z,97866.75
2023-04-29T00:18:14.467Z,97861.97
2023-04-29T00:21:17.285Z,97855.88
2023-04-29T00:24:20.435Z,97856.81
2023-04-29T00:27:23.068Z,97857.72
2023-04-29T00:30:25.961Z,97856.59
2023-04-29T00:33:28.798Z,97848.94
2023-04-29T00:36:32.759Z,97844.00
2023-04-29T00:39:35.464Z,97834.56
2023-04-29T00:42:40.516Z,97829.91
2023-04-29T00:45:43.948Z,97827.06
2023-04-29T00:48:46.687Z,97818.97
2023-04-29T00:51:50.362Z,97823.91
2023-04-29T00:54:53.015Z,97821.91
2023-04-29T00:57:56.419Z,97826.25
2023-04-29T01:01:00.810Z,97833.97
2023-04-29T01:04:05.715Z,97833.47
2023-04-29T01:07:18.477Z,97832.47
2023-04-29T01:10:30.129Z,97827.09
2023-04-29T01:13:40.440Z,97821.09
2023-04-29T01:16:49.556Z,97807.88
2023-04-29T01:19:57.977Z,97820.91
2023-04-29T01:23:01.555Z,97827.63
2023-04-29T01:26:06.221Z,97823.19
2023-04-29T01:29:51.631Z,97814.63
2023-04-29T01:33:04.918Z,97819.22
2023-04-29T01:36:46.996Z,97815.97
2023-04-29T01:40:17.566Z,97814.34
2023-04-29T01:43:34.516Z,97814.34
2023-04-29T01:46:54.248Z,97825.00
2023-04-29T01:50:00.380Z,97817.78
2023-04-29T01:53:03.190Z,97822.16
2023-04-29T01:56:07.388Z,97813.34
2023-04-29T01:59:34.052Z,97825.44
2023-04-29T02:02:42.653Z,97818.25
2023-04-29T02:05:59.884Z,97828.88
2023-04-29T02:09:02.955Z,97823.34
2023-04-29T02:12:08.069Z,97824.09
2023-04-29T02:15:10.902Z,97828.22
2023-04-29T02:18:13.651Z,97822.50
2023-04-29T02:21:16.734Z,97813.22
2023-04-29T02:24:19.649Z,97807.97
2023-04-29T02:27:24.056Z,97809.59
2023-04-29T02:30:26.911Z,97814.13
2023-04-29T02:33:30.336Z,97812.13
2023-04-29T02:36:33.005Z,97808.22
2023-04-29T02:39:35.949Z,97809.50
2023-04-29T02:42:38.899Z,97815.06
2023-04-29T02:45:42.871Z,97823.63
2023-04-29T02:51:50.276Z,97823.31
2023-04-29T02:54:53.685Z,97814.13
2023-04-29T02:57:56.431Z,97818.28
2023-04-29T03:00:59.284Z,97812.81
2023-04-29T03:04:02.412Z,97809.50
2023-04-29T03:07:05.740Z,97815.28
2023-04-29T03:10:09.349Z,97807.56
2023-04-29T03:13:15.803Z,97807.06
2023-04-29T03:16:20.003Z,97807.56
2023-04-29T03:19:22.917Z,97795.78
2023-04-29T03:22:27.034Z,97787.09
2023-04-29T03:25:30.517Z,97795.78
2023-04-29T03:28:36.465Z,97790.53
2023-04-29T03:31:39.426Z,97788.00
2023-04-29T03:34:42.438Z,97790.94
2023-04-29T03:37:56.398Z,97791.41
2023-04-29T03:41:04.689Z,97787.59
2023-04-29T03:44:07.828Z,97801.38
2023-04-29T03:47:10.601Z,97798.06
2023-04-29T03:50:13.596Z,97803.38
2023-04-29T03:53:17.658Z,97807.88
2023-04-29T03:56:20.911Z,97798.41
2023-04-29T03:59:23.682Z,97809.91
2023-04-29T04:02:28.114Z,97812.53
2023-04-29T04:05:31.564Z,97816.78
2023-04-29T04:08:41.765Z,97819.09
2023-04-29T04:11:51.177Z,97815.22
2023-04-29T04:14:55.859Z,97813.59
2023-04-29T04:17:58.629Z,97813.28
2023-04-29T04:21:06.852Z,97812.34
2023-04-29T04:24:12.081Z,97810.38
2023-04-29T04:27:15.205Z,97808.44
2023-04-29T04:30:22.118Z,97807.56
2023-04-29T04:33:26.981Z,97806.97
2023-04-29T04:36:29.817Z,97801.22
2023-04-29T04:39:33.175Z,97798.41
2023-04-29T04:42:36.525Z,97801.16
2023-04-29T04:45:39.394Z,97795.63
2023-04-29T04:48:43.506Z,97793.28
2023-04-29T04:51:49.270Z,97785.19
2023-04-29T04:54:52.160Z,97785.75
2023-04-29T04:57:59.647Z,97787.50
2023-04-29T05:01:03.151Z,97790.78
2023-04-29T05:04:06.261Z,97793.13
2023-04-29T05:07:09.529Z,97798.69
2023-04-29T05:10:33.739Z,97796.50
2023-04-29T05:13:37.872Z,97801.22
2023-04-29T05:16:40.930Z,97799.84
2023-04-29T05:19:44.256Z,97796.09
2023-04-29T05:22:47.832Z,97808.50
2023-04-29T05:25:51.185Z,97800.53
2023-04-29T05:28:54.338Z,97807.94
2023-04-29T05:31:59.689Z,97810.59
2023-04-29T05:35:03.725Z,97812.59
2023-04-29T05:38:08.128Z,97816.84
2023-04-29T05:41:17.072Z,97814.22
2023-04-29T05:44:23.479Z,97815.53
2023-04-29T05:47:26.494Z,97821.94
2023-04-29T05:50:29.412Z,97822.91
2023-04-29T05:53:33.612Z,97828.91
2023-04-29T05:56:36.472Z,97828.09
2023-04-29T05:59:39.591Z,97825.53
2023-04-29T06:02:51.049Z,97823.88
2023-04-29T06:06:01.451Z,97832.03
2023-04-29T06:09:27.874Z,97839.16
2023-04-29T06:12:35.072Z,97841.00
2023-04-29T06:15:37.980Z,97838.41
2023-04-29T06:18:41.828Z,97842.63
2023-04-29T06:21:44.721Z,97843.19
2023-04-29T06:24:50.020Z,97842.44
2023-04-29T06:28:08.309Z,97850.50
2023-04-29T06:31:11.254Z,97853.50
2023-04-29T06:34:14.353Z,97853.88
2023-04-29T06:37:37.993Z,97850.75
2023-04-29T06:41:01.381Z,97864.31
2023-04-29T06:44:36.921Z,97862.91
2023-04-29T06:47:59.902Z,97852.69
2023-04-29T06:51:14.437Z,97856.94
2023-04-29T06:54:17.340Z,97850.56
2023-04-29T06:57:21.269Z,97857.88
2023-04-29T07:00:24.212Z,97853.00
2023-04-29T07:03:31.046Z,97856.31
2023-04-29T07:06:34.051Z,97864.31
2023-04-29T07:09:37.235Z,97859.13
2023-04-29T07:12:40.485Z,97860.75
2023-04-29T07:15:43.516Z,97861.09
2023-04-29T07:18:46.399Z,97864.19
2023-04-29T07:21:49.300Z,97868.47
2023-04-29T07:24:56.076Z,97880.34
2023-04-29T07:27:58.960Z,97879.38
2023-04-29T07:31:01.848Z,97889.25
2023-04-29T07:34:04.978Z,97883.50
2023-04-29T07:37:07.856Z,97893.53
2023-04-29T07:40:10.910Z,97896.81
2023-04-29T07:43:14.372Z,97890.84
2023-04-29T07:46:18.576Z,97892.50
2023-04-29T07:49:21.337Z,97889.34
2023-04-29T07:52:24.156Z,97891.03
2023-04-29T07:55:27.702Z,97891.38
2023-04-29T07:58:32.667Z,97886.25
2023-04-29T08:01:35.787Z,97901.06
2023-04-29T08:04:42.848Z,97896.50
2023-04-29T08:07:52.084Z,97903.41
2023-04-29T08:10:54.938Z,97902.09
2023-04-29T08:14:00.569Z,97894.16
2023-04-29T08:17:06.807Z,97905.97
2023-04-29T08:20:09.969Z,97903.34
2023-04-29T08:23:13.105Z,97904.41
2023-04-29T08:26:16.067Z,97900.75
2023-04-29T08:29:18.839Z,97899.94
2023-04-29T08:32:21.534Z,97907.69
2023-04-29T08:35:24.348Z,97908.00
2023-04-29T08:38:27.543Z,97907.53
2023-04-29T08:41:33.002Z,97907.69
2023-04-29T08:44:37.138Z,97912.63
2023-04-29T08:47:40.402Z,97913.44
2023-04-29T08:50:43.683Z,97912.63
2023-04-29T08:53:46.785Z,97906.69
2023-04-29T08:56:49.591Z,97901.75
2023-04-29T08:59:52.483Z,97898.78
2023-04-29T09:02:57.075Z,97905.81
2023-04-29T09:06:01.542Z,97900.72
2023-04-29T09:09:04.712Z,97914.72
2023-04-29T09:12:09.673Z,97909.78
2023-04-29T09:15:12.488Z,97900.72
2023-04-29T09:18:48.218Z,97902.00
2023-04-29T09:21:57.492Z,97898.75
2023-04-29T09:25:13.190Z,97903.47
2023-04-29T09:28:17.254Z,97910.16
2023-04-29T09:31:28.294Z,97910.00
2023-04-29T09:34:33.086Z,97909.19
2023-04-29T09:37:35.879Z,97899.56
2023-04-29T09:40:54.483Z,97904.66
2023-04-29T09:44:08.964Z,97888.06
2023-04-29T09:47:13.575Z,97897.03
2023-04-29T09:50:18.433Z,97893.63
2023-04-29T09:53:30.245Z,97889.72
2023-04-29T09:56:49.903Z,97881.47
2023-04-29T09:59:52.740Z,97879.84
2023-04-29T10:02:59.488Z,97879.75
2023-04-29T10:06:06.835Z,97873.13
2023-04-29T10:09:15.924Z,97881.25
2023-04-29T10:12:20.703Z,97859.75
2023-04-29T10:15:37.921Z,97854.06
2023-04-29T10:18:42.590Z,97853.19
2023-04-29T10:21:47.186Z,97858.38
2023-04-29T10:24:52.796Z,97861.03
2023-04-29T10:27:56.406Z,97855.72
2023-04-29T10:31:06.154Z,97854.47
2023-04-29T10:34:09.055Z,97851.59
2023-04-29T10:37:12.785Z,97843.63
2023-04-29T10:40:31.098Z,97844.88
2023-04-29T10:43:34.030Z,97847.25
2023-04-29T10:46:38.338Z,97841.19
2023-04-29T10:49:41.685Z,97848.56
2023-04-29T10:52:58.229Z,97848.50
2023-04-29T10:56:06.697Z,97853.59
2023-04-29T10:59:18.857Z,97845.53
2023-04-29T11:02:21.966Z,97851.19
2023-04-29T11:05:32.625Z,97843.47
2023-04-29T11:08:41.505Z,97842.06
2023-04-29T11:11:53.155Z,97835.00
2023-04-29T11:15:05.214Z,97841.59
2023-04-29T11:18:16.420Z,97834.63
2023-04-29T11:21:21.091Z,97834.47
2023-04-29T11:24:31.535Z,97840.44
2023-04-29T11:27:43.057Z,97839.31
2023-04-29T11:30:47.234Z,97837.53
2023-04-29T11:33:50.335Z,97837.38
2023-04-29T11:36:54.173Z,97844.00
2023-04-29T11:40:03.875Z,97843.25
2023-04-29T11:43:19.677Z,97837.28
2023-04-29T11:46:22.723Z,97836.31
2023-04-29T11:49:31.934Z,97830.78
2023-04-29T11:52:40.742Z,97851.06
2023-04-29T11:55:44.072Z,97845.91
2023-04-29T11:58:47.462Z,97844.88
2023-04-29T12:01:51.344Z,97849.13
2023-04-29T12:04:59.183Z,97846.84
2023-04-29T12:08:02.390Z,97856.03
2023-04-29T12:11:08.001Z,97852.78
2023-04-29T12:14:11.666Z,97862.09
2023-04-29T12:17:18.629Z,97861.84
2023-04-29T12:20:24.714Z,97870.34
2023-04-29T12:23:28.135Z,97870.44
2023-04-29T12:26:36.356Z,97852.78
2023-04-29T12:29:43.211Z,97847.94
2023-04-29T12:32:50.098Z,97844.72
2023-04-29T12:35:59.980Z,97836.41
2023-04-29T12:39:13.753Z,97843.22
2023-04-29T12:42:20.000Z,97831.44
2023-04-29T12:45:34.679Z,97841.13
2023-04-29T12:48:45.037Z,97834.88
2023-04-29T12:51:54.333Z,97829.41
2023-04-29T12:54:58.695Z,97828.28
2023-04-29T12:58:06.261Z,97814.19
2023-04-29T13:01:18.880Z,97812.34
2023-04-29T13:04:32.823Z,97815.34
2023-04-29T13:07:39.714Z,97806.59
2023-04-29T13:10:53.692Z,97805.09
2023-04-29T13:17:04.830Z,97804.13
2023-04-29T13:20:15.252Z,97810.22
2023-04-29T13:23:26.289Z,97799.28
2023-04-29T13:26:36.672Z,97791.19
2023-04-29T13:29:39.723Z,97798.44
2023-04-29T13:32:49.787Z,97790.75
2023-04-29T13:36:00.175Z,97790.50
2023-04-29T13:39:11.426Z,97790.28
2023-04-29T13:42:18.555Z,97787.63
2023-04-29T13:45:21.705Z,97792.94
2023-04-29T13:49:10.236Z,97787.72
2023-04-29T14:02:14.957Z,97800.66
2023-04-29T14:04:49.225Z,97798.00
2023-04-29T14:07:54.969Z,97800.66
2023-04-29T14:10:58.953Z,97796.34
2023-04-29T14:14:06.217Z,97790.59
2023-04-29T14:17:10.069Z,97791.34
2023-04-29T14:20:16.761Z,97783.75
2023-04-29T14:23:20.018Z,97789.97
2023-04-29T14:26:28.281Z,97796.03
2023-04-29T14:29:31.885Z,97796.81
2023-04-29T14:32:34.780Z,97796.00
2023-04-29T14:35:37.685Z,97789.03
2023-04-29T14:38:40.820Z,97794.25
2023-04-29T14:41:43.631Z,97789.66
2023-04-29T14:44:46.399Z,97779.53
2023-04-29T14:47:49.282Z,97790.78
2023-04-29T14:50:52.172Z,97779.09
2023-04-29T14:53:54.924Z,97770.56
2023-04-29T14:56:57.822Z,97775.84
2023-04-29T15:00:00.681Z,97764.41
2023-04-29T15:03:05.430Z,97772.94
2023-04-29T15:06:08.572Z,97770.16
2023-04-29T15:09:11.275Z,97770.41
2023-04-29T15:12:16.993Z,97780.41
2023-04-29T15:15:20.467Z,97778.16
2023-04-29T15:18:26.802Z,97777.88
2023-04-29T15:21:30.559Z,97781.56
2023-04-29T15:24:33.581Z,97774.19
2023-04-29T15:27:37.383Z,97781.50
2023-04-29T15:30:40.135Z,97779.69
2023-04-29T15:33:43.305Z,97786.22
2023-04-29T15:36:46.557Z,97779.75
2023-04-29T15:39:49.266Z,97781.22
2023-04-29T15:42:52.293Z,97782.44
2023-04-29T15:45:56.423Z,97782.31
2023-04-29T15:48:59.421Z,97783.94
2023-04-29T15:52:02.652Z,97775.59
2023-04-29T15:55:06.711Z,97773.84
2023-04-29T15:58:09.461Z,97762.72
2023-04-29T16:01:12.545Z,97767.16
2023-04-29T16:04:15.318Z,97768.09
2023-04-29T16:07:18.770Z,97766.69
2023-04-29T16:10:21.992Z,97769.31
2023-04-29T16:13:24.994Z,97762.63
2023-04-29T16:16:28.162Z,97762.81
2023-04-29T16:19:31.015Z,97763.34
2023-04-29T16:22:36.273Z,97764.59
2023-04-29T16:25:40.879Z,97769.38
2023-04-29T16:28:43.778Z,97769.91
2023-04-29T16:31:47.212Z,97766.94
2023-04-29T16:34:50.477Z,97766.56
2023-04-29T16:37:53.760Z,97758.50
2023-04-29T16:40:56.790Z,97757.63
2023-04-29T16:43:59.904Z,97764.88
2023-04-29T16:47:03.484Z,97757.66
2023-04-29T16:50:08.755Z,97763.66
2023-04-29T16:53:15.833Z,97766.56
2023-04-29T16:56:19.443Z,97763.66
2023-04-29T16:59:22.460Z,97763.34
2023-04-29T17:02:25.880Z,97774.22
2023-04-29T17:05:29.138Z,97773.63
2023-04-29T17:08:32.396Z,97777.31
2023-04-29T17:11:35.313Z,97785.28
2023-04-29T17:14:40.251Z,97787.00
2023-04-29T17:17:43.500Z,97786.44
2023-04-29T17:20:48.115Z,97784.44
2023-04-29T17:23:53.777Z,97795.53
2023-04-29T17:26:56.821Z,97794.53
2023-04-29T17:29:59.980Z,97795.03
2023-04-29T17:33:09.206Z,97795.63
2023-04-29T17:36:15.153Z,97800.16
2023-04-29T17:39:18.110Z,97802.88
2023-04-29T17:42:24.276Z,97804.72
2023-04-29T17:45:27.151Z,97807.09
2023-04-29T17:48:30.311Z,97812.47
2023-04-29T17:51:36.110Z,97809.53
2023-04-29T17:54:40.466Z,97816.50
2023-04-29T17:57:43.400Z,97822.19
2023-04-29T18:00:46.742Z,97812.72
2023-04-29T18:03:51.779Z,97818.53
2023-04-29T18:06:54.702Z,97826.16
2023-04-29T18:09:57.923Z,97825.91
2023-04-29T18:13:03.812Z,97831.19
2023-04-29T18:16:08.262Z,97831.53
2023-04-29T18:19:11.465Z,97833.19
2023-04-29T18:22:14.352Z,97831.88
2023-04-29T18:25:17.668Z,97834.66
2023-04-29T18:28:25.397Z,97842.34
2023-04-29T18:31:30.911Z,97849.72
2023-04-29T18:34:33.838Z,97845.28
2023-04-29T18:37:36.684Z,97848.78
2023-04-29T18:40:39.812Z,97851.13
2023-04-29T18:43:42.567Z,97847.84
2023-04-29T18:46:45.522Z,97857.75
2023-04-29T18:49:48.679Z,97857.41
2023-04-29T18:52:51.488Z,97860.56
2023-04-29T18:55:54.580Z,97872.44
2023-04-29T18:58:57.983Z,97874.22
2023-04-29T19:02:01.316Z,97873.09
2023-04-29T19:05:07.053Z,97878.38
2023-04-29T19:08:10.032Z,97880.19
2023-04-29T19:11:13.017Z,97886.25
2023-04-29T19:14:15.883Z,97886.25
2023-04-29T19:17:18.766Z,97890.72
2023-04-29T19:20:21.660Z,97891.88
2023-04-29T19:23:24.622Z,97885.47
2023-04-29T19:26:27.599Z,97888.09
2023-04-29T19:29:30.329Z,97889.59
2023-04-29T19:32:33.288Z,97886.13
2023-04-29T19:35:36.170Z,97880.22
2023-04-29T19:38:39.077Z,97883.53
2023-04-29T19:41:42.085Z,97883.53
2023-04-29T19:44:45.205Z,97891.47
2023-04-29T19:47:50.311Z,97887.50
2023-04-29T19:50:53.408Z,97895.22
2023-04-29T19:53:56.976Z,97901.81
2023-04-29T19:57:00.270Z,97898.34
2023-04-29T20:00:04.585Z,97901.00
2023-04-29T20:03:09.048Z,97889.00
2023-04-29T20:06:12.110Z,97901.72
2023-04-29T20:09:16.010Z,97893.16
2023-04-29T20:12:18.983Z,97907.31
2023-04-29T20:15:22.025Z,97901.75
2023-04-29T20:18:24.957Z,97905.84
2023-04-29T20:21:28.132Z,97902.06
2023-04-29T20:24:31.075Z,97902.06
2023-04-29T20:27:34.052Z,97904.38
2023-04-29T20:30:37.204Z,97905.84
2023-04-29T20:33:40.015Z,97910.63
2023-04-29T20:36:42.959Z,97908.31
2023-04-29T20:39:46.965Z,97908.00
2023-04-29T20:42:50.051Z,97908.00
2023-04-29T20:45:53.147Z,97908.81
2023-04-29T20:48:56.026Z,97914.91
2023-04-29T20:52:00.280Z,97910.78
2023-04-29T20:55:03.407Z,97911.75
2023-04-29T20:58:06.361Z,97909.44
2023-04-29T21:01:09.465Z,97917.19
2023-04-29T21:04:12.321Z,97925.72
2023-04-29T21:07:15.196Z,97917.66
2023-04-29T21:10:18.309Z,97915.53
2023-04-29T21:13:21.102Z,97921.78
2023-04-29T21:16:23.864Z,97922.41
2023-04-29T21:19:26.790Z,97927.69
2023-04-29T21:22:29.599Z,97918.00
2023-04-29T21:25:32.293Z,97926.03
2023-04-29T21:28:35.098Z,97920.28
2023-04-29T21:31:37.922Z,97919.28
2023-04-29T21:34:41.027Z,97917.75
2023-04-29T21:37:46.096Z,97922.34
2023-04-29T21:40:48.973Z,97916.41
2023-04-29T21:43:53.417Z,97916.72
2023-04-29T21:46:57.132Z,97917.03
2023-04-29T21:50:01.005Z,97918.88
2023-04-29T21:53:03.884Z,97916.09
2023-04-29T21:56:07.262Z,97919.03
2023-04-29T21:59:09.967Z,97914.13
2023-04-29T22:02:22.353Z,97925.16
2023-04-29T22:05:25.548Z,97919.88
2023-04-29T22:08:28.376Z,97919.22
2023-04-29T22:11:31.401Z,97919.56
2023-04-29T22:14:34.226Z,97917.22
2023-04-29T22:17:37.065Z,97914.44
2023-04-29T22:20:39.868Z,97919.88
2023-04-29T22:23:43.128Z,97919.78
2023-04-29T22:26:46.802Z,97923.84
2023-04-29T22:29:50.051Z,97921.03
2023-04-29T22:32:52.841Z,97934.84
2023-04-29T22:35:55.772Z,97930.66
2023-04-29T22:38:59.098Z,97915.84
2023-04-29T22:42:04.962Z,97926.69
2023-04-29T22:45:08.556Z,97919.59
2023-04-29T22:48:11.271Z,97921.19
2023-04-29T22:51:14.107Z,97921.16
2023-04-29T22:54:16.928Z,97933.19
2023-04-29T22:57:19.755Z,97925.28
2023-04-29T23:00:22.687Z,97925.28
2023-04-29T23:03:25.837Z,97928.22
2023-04-29T23:06:29.002Z,97932.19
2023-04-29T23:09:32.008Z,97928.91
2023-04-29T23:12:35.033Z,97933.34
2023-04-29T23:15:37.961Z,97928.41
2023-04-29T23:18:41.070Z,97928.72
2023-04-29T23:21:44.131Z,97923.00
2023-04-29T23:24:47.012Z,97918.38
2023-04-29T23:27:49.804Z,97926.72
2023-04-29T23:30:52.693Z,97920.66
2023-04-29T23:33:55.691Z,97923.78
2023-04-29T23:36:58.840Z,97913.13
2023-04-29T23:40:01.701Z,97920.50
2023-04-29T23:43:04.685Z,97916.38
2023-04-29T23:46:07.459Z,97916.03
2023-04-29T23:49:10.932Z,97917.38
2023-04-29T23:52:13.870Z,97920.66
2023-04-29T23:55:16.646Z,97927.50
2023-04-29T23:58:19.567Z,97932.75
